Time;durP1;ratioP1;P1;durP2;ratioP2;P2;SDS_P1;SDS_P2;PMS_P1;PMS_P2;Temp;Humidity;BMP_temperature;BMP_pressure;BME280_temperature;BME280_humidity;BME280_pressure;Samples;Min_cycle;Max_cycle;Signal;HPM_P1;HPM_P2
2022/02/07 00:00:40;;;;;;;;;;;;;;;11.80;39.63;100689.94;4415871;32;20042;-70
2022/02/07 00:05:44;;;;;;;;;;;;;;;12.27;39.14;100727.56;3954255;32;15724558;-70
2022/02/07 00:08:10;;;;;;;;;;;;;;;12.27;39.14;100727.56;4435840;32;19965;-70
2022/02/07 00:10:38;;;;;;;;;;;;;;;11.28;40.65;100738.09;4437405;32;20129;-70
2022/02/07 00:13:03;;;;;;;;;;;;;;;11.81;39.91;100731.78;4430491;32;20424;-70
2022/02/07 00:15:29;;;;;;;;;;;;;;;11.82;39.34;100760.78;4434846;32;19968;-70
2022/02/07 00:17:54;;;;;;;;;;;;;;;11.89;39.33;100755.72;4433529;32;20120;-70
2022/02/07 00:20:22;;;;;;;;;;;;;;;12.05;39.02;100766.13;4433710;32;20035;-70
2022/02/07 00:22:48;;;;;;;;;;;;;;;12.19;38.75;100765.72;4434362;32;19975;-70
2022/02/07 00:25:15;;;;;;;;;;;;;;;12.34;38.49;100786.63;4433126;32;20371;-70
2022/02/07 00:27:41;;;;;;;;;;;;;;;12.25;38.59;100782.87;4434832;32;20431;-70
2022/02/07 00:30:08;;;;;;;;;;;;;;;12.28;38.58;100782.75;4433052;32;20017;-70
2022/02/07 00:32:34;;;;;;;;;;;;;;;12.08;38.62;100782.94;4430897;32;20029;-70
2022/02/07 00:34:59;;;;;;;;;;;;;;;12.14;38.66;100794.47;4437351;32;19949;-70
2022/02/07 00:37:29;;;;;;;;;;;;;;;11.75;38.85;100795.59;4435925;32;20409;-70
2022/02/07 00:40:03;;;;;;;;;;;;;;;12.09;38.37;100806.31;4429718;32;20005;-70
2022/02/07 00:42:34;;;;;;;;;;;;;;;12.20;38.08;100817.25;4434641;32;20033;-70
2022/02/07 00:45:05;;;;;;;;;;;;;;;12.34;37.83;100831.78;4436806;32;19957;-70
2022/02/07 00:47:31;;;;;;;;;;;;;;;12.21;38.11;100827.31;4434477;32;19969;-70
2022/02/07 00:49:57;;;;;;;;;;;;;;;12.09;38.51;100832.47;4434962;32;19997;-70
2022/02/07 00:52:24;;;;;;;;;;;;;;;12.05;38.64;100847.91;4424493;32;20096;-70
2022/02/07 00:54:50;;;;;;;;;;;;;;;12.14;38.28;100850.87;4435625;32;19957;-70
2022/02/07 00:57:16;;;;;;;;;;;;;;;12.04;38.57;100846.34;4432145;32;19977;-70
2022/02/07 00:59:42;;;;;;;;;;;;;;;11.78;39.48;100847.47;4432284;32;19972;-70
2022/02/07 01:02:08;;;;;;;;;;;;;;;11.85;39.39;100861.38;4432713;32;20001;-70
2022/02/07 01:04:33;;;;;;;;;;;;;;;12.04;39.20;100880.19;4432183;32;20025;-70
2022/02/07 01:07:02;;;;;;;;;;;;;;;12.10;39.21;100893.28;4434042;32;19997;-71
2022/02/07 01:09:37;;;;;;;;;;;;;;;12.05;39.19;100888.22;4435518;32;20394;-70
2022/02/07 01:14:51;;;;;;;;;;;;;;;12.25;39.50;100918.28;3951922;32;15722221;-70
2022/02/07 01:23:05;;;;;;;;;;;;;;;12.07;40.61;100941.38;4427704;32;19946;-70
2022/02/07 01:58:05;;;;;;;;;;;;;;;12.15;41.35;100992.75;3951972;32;15722590;-70
2022/02/07 02:00:30;;;;;;;;;;;;;;;12.17;41.26;100990.25;4432493;32;20002;-70
2022/02/07 02:02:56;;;;;;;;;;;;;;;12.04;41.29;101005.09;4432354;32;19964;-70
2022/02/07 02:05:21;;;;;;;;;;;;;;;11.84;41.66;101018.50;4436868;32;19953;-70
2022/02/07 02:07:50;;;;;;;;;;;;;;;11.88;41.54;101015.59;4435384;32;19975;-70
2022/02/07 02:10:16;;;;;;;;;;;;;;;11.98;41.42;101020.97;4433780;32;19996;-70
2022/02/07 02:12:55;;;;;;;;;;;;;;;11.98;41.55;101015.34;4435263;32;19963;-70
2022/02/07 02:37:19;;;;;;;;;;;;;;;12.30;40.48;101085.03;3952812;32;15722541;-70
2022/02/07 02:45:29;;;;;;;;;;;;;;;11.80;40.85;101084.69;4431224;32;19957;-70
2022/02/07 02:47:57;;;;;;;;;;;;;;;11.95;40.61;101088.75;4432111;32;19964;-70
2022/02/07 02:50:40;;;;;;;;;;;;;;;11.37;41.39;101089.66;4425378;32;19958;-70
2022/02/07 02:53:07;;;;;;;;;;;;;;;11.58;40.81;101078.72;4428279;32;19962;-70
2022/02/07 02:55:35;;;;;;;;;;;;;;;11.73;40.77;101082.03;4431261;32;19948;-70
2022/02/07 02:58:01;;;;;;;;;;;;;;;11.37;41.87;101081.19;4428160;32;20270;-70
2022/02/07 03:00:27;;;;;;;;;;;;;;;11.68;41.33;101082.53;4431048;32;20385;-70
2022/02/07 03:02:52;;;;;;;;;;;;;;;11.86;40.94;101092.19;4428121;32;19959;-72
2022/02/07 03:05:18;;;;;;;;;;;;;;;11.52;41.57;101090.94;4432337;32;19973;-71
2022/02/07 03:07:44;;;;;;;;;;;;;;;11.83;40.73;101097.91;4430931;32;20030;-71
2022/02/07 03:10:11;;;;;;;;;;;;;;;11.56;40.83;101102.91;4428643;32;20316;-71
2022/02/07 03:12:46;;;;;;;;;;;;;;;11.71;40.52;101107.84;4428740;32;20321;-71
2022/02/07 03:17:57;;;;;;;;;;;;;;;11.82;40.03;101127.34;4428925;32;20027;-72
2022/02/07 03:20:23;;;;;;;;;;;;;;;11.81;40.20;101128.53;4425804;32;19993;-72
2022/02/07 03:22:49;;;;;;;;;;;;;;;12.00;39.80;101130.53;4427175;32;19964;-72
2022/02/07 03:25:15;;;;;;;;;;;;;;;12.09;39.76;101142.00;4430255;32;19958;-71
2022/02/07 03:27:41;;;;;;;;;;;;;;;12.16;39.58;101141.03;4430357;32;19965;-71
2022/02/07 03:30:06;;;;;;;;;;;;;;;11.83;40.34;101135.34;4428171;32;20016;-71
2022/02/07 03:32:32;;;;;;;;;;;;;;;11.96;40.12;101147.53;4426090;32;19961;-71
2022/02/07 03:34:58;;;;;;;;;;;;;;;11.93;40.42;101156.06;4425390;32;20432;-71
2022/02/07 03:37:23;;;;;;;;;;;;;;;12.01;40.12;101169.59;4428115;32;20451;-71
2022/02/07 03:39:49;;;;;;;;;;;;;;;12.00;40.51;101179.28;4426863;32;20412;-71
2022/02/07 03:42:15;;;;;;;;;;;;;;;12.00;40.53;101189.78;4428316;32;19996;-72
2022/02/07 03:44:41;;;;;;;;;;;;;;;11.82;40.80;101190.16;4430119;32;20029;-72
2022/02/07 03:47:06;;;;;;;;;;;;;;;11.80;41.12;101197.47;4428106;32;19988;-72
2022/02/07 03:49:32;;;;;;;;;;;;;;;11.68;41.40;101203.75;4416083;32;20004;-72
2022/02/07 03:51:57;;;;;;;;;;;;;;;11.73;41.30;101198.41;4418153;32;20012;-72
2022/02/07 03:54:23;;;;;;;;;;;;;;;11.81;41.07;101196.22;4419198;32;20287;-72
2022/02/07 03:56:49;;;;;;;;;;;;;;;11.75;41.27;101200.78;4413902;32;19957;-72
2022/02/07 03:59:14;;;;;;;;;;;;;;;11.61;41.79;101204.69;4419484;32;19965;-72
2022/02/07 04:01:40;;;;;;;;;;;;;;;11.63;41.73;101209.94;4415793;32;20016;-72
2022/02/07 04:04:05;;;;;;;;;;;;;;;11.50;42.01;101201.28;4416484;32;20300;-72
2022/02/07 04:06:31;;;;;;;;;;;;;;;11.38;42.25;101206.75;4420105;32;20411;-72
2022/02/07 04:09:01;;;;;;;;;;;;;;;11.45;41.99;101207.41;4418424;32;20424;-72
2022/02/07 04:11:33;;;;;;;;;;;;;;;11.45;42.18;101215.09;4415811;32;19975;-72
2022/02/07 04:14:10;;;;;;;;;;;;;;;11.33;42.55;101205.28;4417967;32;19958;-72
2022/02/07 04:16:44;;;;;;;;;;;;;;;11.39;42.34;101195.06;4418222;32;19965;-72
2022/02/07 04:19:17;;;;;;;;;;;;;;;11.26;42.62;101204.62;4416876;32;19972;-72
2022/02/07 04:21:45;;;;;;;;;;;;;;;11.13;42.78;101204.44;4413502;32;20688;-72
2022/02/07 04:24:11;;;;;;;;;;;;;;;11.10;43.13;101204.50;4414309;32;20023;-72
2022/02/07 04:26:36;;;;;;;;;;;;;;;10.98;43.14;101189.03;4416603;32;19961;-72
2022/02/07 04:29:02;;;;;;;;;;;;;;;11.01;43.14;101193.00;4415219;32;20003;-72
2022/02/07 04:31:28;;;;;;;;;;;;;;;10.78;43.76;101196.66;4415266;32;19957;-72
2022/02/07 04:33:55;;;;;;;;;;;;;;;10.82;43.55;101194.56;4416288;32;20007;-72
2022/02/07 04:36:22;;;;;;;;;;;;;;;10.78;43.89;101212.75;4415605;32;20529;-72
2022/02/07 04:38:48;;;;;;;;;;;;;;;10.80;43.72;101218.75;4416911;32;20020;-72
2022/02/07 04:41:13;;;;;;;;;;;;;;;10.94;43.53;101212.84;4415080;32;19999;-72
2022/02/07 04:43:47;;;;;;;;;;;;;;;10.86;43.76;101211.41;4419341;32;19966;-72
2022/02/07 04:49:23;;;;;;;;;;;;;;;11.55;42.38;101226.00;3951696;32;15723101;-72
2022/02/07 05:00:00;;;;;;;;;;;;;;;11.79;41.86;101238.19;3952952;32;15722657;-72
2022/02/07 05:05:33;;;;;;;;;;;;;;;11.75;41.93;101252.34;3952891;32;15723636;-73
2022/02/07 05:13:52;;;;;;;;;;;;;;;11.32;42.73;101262.84;4435110;32;20000;-73
2022/02/07 05:16:08;;;;;;;;;;;;;;;11.08;43.47;101250.00;4436257;32;19971;-73
2022/02/07 05:18:33;;;;;;;;;;;;;;;11.24;42.78;101254.94;4437797;32;19953;-73
2022/02/07 05:20:59;;;;;;;;;;;;;;;11.25;42.96;101260.16;4436513;32;19994;-73
2022/02/07 05:23:24;;;;;;;;;;;;;;;11.11;43.40;101268.84;4435765;32;20044;-73
2022/02/07 05:25:50;;;;;;;;;;;;;;;11.01;43.48;101280.31;4437211;32;20337;-73
2022/02/07 05:28:16;;;;;;;;;;;;;;;11.10;43.52;101289.81;4434700;32;20069;-73
2022/02/07 05:30:41;;;;;;;;;;;;;;;11.07;43.55;101287.03;4435681;32;20066;-73
2022/02/07 05:33:06;;;;;;;;;;;;;;;11.07;43.78;101287.84;4430950;32;19988;-73
2022/02/07 05:35:32;;;;;;;;;;;;;;;11.07;43.81;101287.84;4435052;32;19953;-73
2022/02/07 05:37:58;;;;;;;;;;;;;;;11.09;43.79;101298.69;4433965;32;19957;-73
2022/02/07 05:40:34;;;;;;;;;;;;;;;11.06;43.99;101300.34;4431395;32;20174;-73
2022/02/07 05:43:00;;;;;;;;;;;;;;;11.07;43.95;101301.94;4432374;32;19961;-73
2022/02/07 05:45:26;;;;;;;;;;;;;;;11.01;44.16;101297.19;4437698;32;20408;-73
2022/02/07 05:47:52;;;;;;;;;;;;;;;10.94;44.35;101308.59;4437268;32;19963;-72
2022/02/07 05:50:18;;;;;;;;;;;;;;;10.87;44.46;101300.28;4434105;32;20001;-73
2022/02/07 05:52:43;;;;;;;;;;;;;;;10.81;44.64;101310.41;4433541;32;20338;-73
2022/02/07 05:55:09;;;;;;;;;;;;;;;10.73;45.02;101323.81;4436403;32;19969;-73
2022/02/07 05:57:35;;;;;;;;;;;;;;;10.59;45.37;101321.22;4436352;32;20034;-73
2022/02/07 06:00:01;;;;;;;;;;;;;;;10.55;45.13;101330.94;4437507;32;20374;-73
2022/02/07 06:02:26;;;;;;;;;;;;;;;10.53;44.88;101327.75;4432441;32;19964;-73
2022/02/07 06:04:52;;;;;;;;;;;;;;;10.38;45.34;101321.53;4434324;32;20280;-72
2022/02/07 06:07:17;;;;;;;;;;;;;;;10.21;45.93;101322.56;4434903;32;19953;-72
2022/02/07 06:09:43;;;;;;;;;;;;;;;10.29;45.53;101324.06;4436445;32;20340;-72
2022/02/07 06:12:09;;;;;;;;;;;;;;;10.28;45.74;101327.31;4433126;32;19957;-73
2022/02/07 06:14:35;;;;;;;;;;;;;;;10.29;45.63;101332.50;4431003;32;20029;-72
2022/02/07 06:17:01;;;;;;;;;;;;;;;10.25;45.55;101333.75;4424763;32;19957;-72
2022/02/07 06:19:27;;;;;;;;;;;;;;;10.27;45.56;101342.59;4425681;32;20312;-72
2022/02/07 06:21:55;;;;;;;;;;;;;;;10.28;45.45;101349.81;4422771;32;20095;-72
2022/02/07 06:24:21;;;;;;;;;;;;;;;10.30;45.48;101353.78;4425048;32;19985;-72
2022/02/07 06:26:48;;;;;;;;;;;;;;;10.27;45.73;101357.44;4423704;32;20011;-72
2022/02/07 06:29:13;;;;;;;;;;;;;;;10.02;46.53;101373.78;4425381;32;20048;-72
2022/02/07 06:31:39;;;;;;;;;;;;;;;10.25;46.32;101367.53;4420754;32;19993;-72
2022/02/07 06:34:05;;;;;;;;;;;;;;;10.22;46.29;101366.34;4424020;32;20392;-72
2022/02/07 06:36:30;;;;;;;;;;;;;;;10.19;46.22;101370.00;4423515;32;20331;-72
2022/02/07 06:38:57;;;;;;;;;;;;;;;10.26;46.40;101380.38;4426644;32;19956;-72
2022/02/07 06:41:22;;;;;;;;;;;;;;;10.24;46.29;101374.38;4424434;32;19988;-72
2022/02/07 06:43:48;;;;;;;;;;;;;;;10.32;45.64;101384.31;4424028;32;20015;-72
2022/02/07 06:46:13;;;;;;;;;;;;;;;10.28;46.27;101394.81;4423253;32;20313;-73
2022/02/07 06:48:40;;;;;;;;;;;;;;;10.36;46.08;101411.19;4422910;32;20049;-72
2022/02/07 06:51:06;;;;;;;;;;;;;;;10.23;46.38;101420.59;4424037;32;20402;-72
2022/02/07 06:53:32;;;;;;;;;;;;;;;10.27;46.04;101426.97;4423224;32;20012;-72
2022/02/07 06:55:57;;;;;;;;;;;;;;;10.41;45.97;101438.88;4425738;32;19965;-72
2022/02/07 06:58:23;;;;;;;;;;;;;;;10.26;46.49;101428.19;4420630;32;20004;-74
2022/02/07 07:00:49;;;;;;;;;;;;;;;10.25;46.56;101440.66;4421009;32;20053;-73
2022/02/07 07:03:18;;;;;;;;;;;;;;;10.27;46.43;101455.13;4424679;32;20034;-73
2022/02/07 07:05:44;;;;;;;;;;;;;;;10.27;46.73;101463.56;4426604;32;20384;-73
2022/02/07 07:08:10;;;;;;;;;;;;;;;10.28;46.66;101460.28;4423304;32;19968;-73
2022/02/07 07:10:36;;;;;;;;;;;;;;;10.37;46.46;101457.78;4425114;32;20025;-73
2022/02/07 07:13:08;;;;;;;;;;;;;;;10.28;46.45;101459.50;4423898;32;19961;-73
2022/02/07 07:15:42;;;;;;;;;;;;;;;10.23;47.10;101463.59;4425859;32;20001;-73
2022/02/07 07:18:07;;;;;;;;;;;;;;;10.21;46.91;101466.00;4425060;32;19957;-73
2022/02/07 07:20:35;;;;;;;;;;;;;;;10.29;46.81;101483.59;4423124;32;19992;-73
2022/02/07 07:23:01;;;;;;;;;;;;;;;10.30;46.79;101485.19;4422008;32;20311;-73
2022/02/07 07:25:27;;;;;;;;;;;;;;;10.22;46.94;101495.75;4424859;32;20564;-77
2022/02/07 07:27:58;;;;;;;;;;;;;;;10.21;47.15;101496.16;4425810;32;20363;-73
2022/02/07 07:30:27;;;;;;;;;;;;;;;10.19;46.81;101493.78;4422714;32;20382;-74
2022/02/07 07:32:57;;;;;;;;;;;;;;;10.22;47.24;101487.31;4423230;32;19981;-74
2022/02/07 07:35:23;;;;;;;;;;;;;;;10.20;47.45;101486.94;4415802;32;19996;-74
2022/02/07 07:37:48;;;;;;;;;;;;;;;10.29;47.24;101484.41;4420195;32;20358;-73
2022/02/07 07:40:14;;;;;;;;;;;;;;;10.30;47.21;101485.19;4420617;32;20174;-74
2022/02/07 07:42:39;;;;;;;;;;;;;;;10.31;46.98;101500.88;4418820;32;20015;-74
2022/02/07 07:45:06;;;;;;;;;;;;;;;10.30;47.35;101502.06;4424311;32;20001;-74
2022/02/07 07:47:32;;;;;;;;;;;;;;;10.38;47.59;101489.53;4418758;32;21069;-72
2022/02/07 07:50:20;;;;;;;;;;;;;;;10.46;47.59;101491.84;4415277;32;19983;-74
2022/02/07 08:03:30;;;;;;;;;;;;;;;10.55;47.47;101491.37;4418308;32;20000;-72
2022/02/07 08:06:10;;;;;;;;;;;;;;;10.57;47.42;101495.34;4427950;32;19983;-73
2022/02/07 08:08:45;;;;;;;;;;;;;;;10.83;47.21;101494.59;4405655;32;20038;-73
2022/02/07 08:11:13;;;;;;;;;;;;;;;11.06;47.08;101489.06;4418404;32;20257;-72
2022/02/07 08:13:42;;;;;;;;;;;;;;;10.89;47.38;101487.28;4423214;32;20964;-72
2022/02/07 08:16:08;;;;;;;;;;;;;;;11.03;47.40;101487.09;4422198;32;20053;-72
2022/02/07 08:18:33;;;;;;;;;;;;;;;11.25;47.00;101488.38;4424387;32;19967;-72
2022/02/07 08:20:59;;;;;;;;;;;;;;;11.46;47.00;101484.44;4418463;32;19956;-73
2022/02/07 08:23:25;;;;;;;;;;;;;;;11.43;46.67;101468.38;4421306;32;20294;-72
2022/02/07 08:25:52;;;;;;;;;;;;;;;11.67;46.67;101475.66;4422998;32;20399;-73
2022/02/07 08:28:17;;;;;;;;;;;;;;;12.05;46.10;101482.62;4426442;32;20437;-71
2022/02/07 08:30:43;;;;;;;;;;;;;;;12.10;46.48;101493.44;4420643;32;20180;-72
2022/02/07 08:33:09;;;;;;;;;;;;;;;12.41;46.30;101497.69;4421411;32;20520;-72
2022/02/07 08:35:34;;;;;;;;;;;;;;;12.56;46.21;101501.00;4424638;32;20397;-72
2022/02/07 08:38:00;;;;;;;;;;;;;;;12.55;46.04;101496.59;4419877;32;20013;-72
2022/02/07 08:40:26;;;;;;;;;;;;;;;12.71;46.03;101493.84;4417667;32;19992;-72
2022/02/07 08:42:54;;;;;;;;;;;;;;;12.81;45.50;101490.81;4424012;32;20378;-72
2022/02/07 08:45:20;;;;;;;;;;;;;;;12.96;44.81;101494.91;4414162;32;20019;-73
2022/02/07 08:47:46;;;;;;;;;;;;;;;13.11;44.72;101484.13;4426298;32;20321;-73
2022/02/07 08:50:13;;;;;;;;;;;;;;;13.29;44.43;101496.59;4425641;32;19999;-72
2022/02/07 08:52:43;;;;;;;;;;;;;;;13.23;44.46;101497.59;4421399;32;19949;-74
2022/02/07 08:55:14;;;;;;;;;;;;;;;13.43;43.99;101498.31;4422155;32;20054;-74
2022/02/07 08:57:44;;;;;;;;;;;;;;;13.67;43.95;101494.09;4421561;32;20544;-73
2022/02/07 09:03:12;;;;;;;;;;;;;;;13.88;43.69;101487.91;3942901;32;15750173;-74
2022/02/07 09:08:49;;;;;;;;;;;;;;;14.65;42.39;101490.66;3947382;32;15734160;-74
2022/02/07 09:11:12;;;;;;;;;;;;;;;14.65;42.39;101490.66;4430583;32;20405;-73
2022/02/07 09:13:41;;;;;;;;;;;;;;;14.32;42.97;101498.47;4429760;32;20445;-74
2022/02/07 09:18:47;;;;;;;;;;;;;;;14.36;43.24;101489.88;3946774;32;15722548;-73
2022/02/07 09:21:14;;;;;;;;;;;;;;;14.36;43.24;101489.88;4424380;32;19961;-72
2022/02/07 09:23:40;;;;;;;;;;;;;;;14.06;43.67;101491.06;4421880;32;20001;-72
2022/02/07 09:26:06;;;;;;;;;;;;;;;14.28;42.94;101491.31;4424491;32;20025;-73
2022/02/07 09:28:32;;;;;;;;;;;;;;;14.62;42.59;101489.53;4420921;32;19958;-73
2022/02/07 09:30:58;;;;;;;;;;;;;;;14.82;42.38;101495.81;4422643;32;19964;-73
2022/02/07 09:33:23;;;;;;;;;;;;;;;14.80;42.30;101504.00;4421778;32;20292;-73
2022/02/07 09:35:49;;;;;;;;;;;;;;;15.24;41.42;101505.06;4422935;32;20019;-72
2022/02/07 09:38:16;;;;;;;;;;;;;;;15.05;41.19;101514.56;4425524;32;20675;-72
2022/02/07 09:40:42;;;;;;;;;;;;;;;15.07;41.11;101521.37;4423264;32;20001;-73
2022/02/07 09:43:08;;;;;;;;;;;;;;;15.20;41.02;101536.41;4422320;32;19961;-73
2022/02/07 09:45:37;;;;;;;;;;;;;;;15.44;40.31;101539.72;4421579;32;19988;-73
2022/02/07 09:48:04;;;;;;;;;;;;;;;15.48;39.69;101535.53;4427919;32;20523;-73
2022/02/07 09:50:31;;;;;;;;;;;;;;;15.74;39.88;101534.28;4423500;32;20241;-73
2022/02/07 09:52:59;;;;;;;;;;;;;;;16.04;38.49;101537.78;4423845;32;20004;-73
2022/02/07 09:55:25;;;;;;;;;;;;;;;16.55;38.07;101539.25;4423030;32;19977;-73
2022/02/07 09:57:53;;;;;;;;;;;;;;;16.72;37.89;101547.12;4424679;32;20011;-73
2022/02/07 10:00:20;;;;;;;;;;;;;;;16.97;37.01;101541.31;4425454;32;20212;-73
2022/02/07 10:02:52;;;;;;;;;;;;;;;17.15;36.40;101530.06;4424531;32;20028;-73
2022/02/07 10:05:22;;;;;;;;;;;;;;;17.94;35.64;101529.34;4423340;32;20016;-73
2022/02/07 10:08:01;;;;;;;;;;;;;;;18.15;34.53;101534.13;4423548;32;19989;-73
2022/02/07 10:10:41;;;;;;;;;;;;;;;18.13;33.93;101538.72;4423326;32;19993;-73
2022/02/07 10:13:23;;;;;;;;;;;;;;;17.79;34.32;101548.25;4423130;32;19953;-73
2022/02/07 10:43:29;;;;;;;;;;;;;;;16.93;36.44;101514.25;3947725;32;15724354;-74
2022/02/07 10:48:30;;;;;;;;;;;;;;;16.15;38.24;101515.47;3948507;32;15728539;-71
2022/02/07 10:51:05;;;;;;;;;;;;;;;16.23;37.83;101505.47;4429769;32;20001;-74
2022/02/07 10:53:30;;;;;;;;;;;;;;;16.61;37.33;101503.31;4431269;32;19988;-74
2022/02/07 10:55:56;;;;;;;;;;;;;;;16.96;36.85;101514.13;4431625;32;20420;-74
2022/02/07 10:58:23;;;;;;;;;;;;;;;17.81;35.51;101500.19;4429893;32;19997;-74
2022/02/07 11:00:56;;;;;;;;;;;;;;;18.40;34.49;101513.94;4427463;32;20351;-74
2022/02/07 11:03:24;;;;;;;;;;;;;;;18.01;35.03;101505.47;4429755;32;19968;-74
2022/02/07 11:05:56;;;;;;;;;;;;;;;18.07;35.23;101507.19;4430630;32;20044;-74
2022/02/07 11:08:27;;;;;;;;;;;;;;;17.21;36.69;101507.50;4431701;32;20264;-74
2022/02/07 11:14:01;;;;;;;;;;;;;;;17.59;36.42;101508.84;3947075;32;15723552;-74
2022/02/07 11:19:25;;;;;;;;;;;;;;;18.56;35.03;101507.13;3946949;32;15724573;-71
2022/02/07 11:22:08;;;;;;;;;;;;;;;18.56;35.03;101507.13;4420920;32;20307;-75
2022/02/07 11:24:50;;;;;;;;;;;;;;;18.34;35.18;101495.03;4409255;32;19964;-73
2022/02/07 11:30:11;;;;;;;;;;;;;;;19.81;32.57;101488.09;3946720;32;15723514;-74
2022/02/07 11:35:22;;;;;;;;;;;;;;;21.23;30.75;101498.06;3947297;32;15724596;-73
2022/02/07 11:37:52;;;;;;;;;;;;;;;21.23;30.75;101498.06;4424423;32;19992;-73
2022/02/07 11:48:36;;;;;;;;;;;;;;;22.67;28.48;101485.88;3962343;32;15723420;-74
2022/02/07 11:51:03;;;;;;;;;;;;;;;22.67;28.48;101485.88;4444949;32;19956;-74
2022/02/07 11:53:31;;;;;;;;;;;;;;;22.78;27.61;101504.00;4447223;32;19968;-74
2022/02/07 11:56:07;;;;;;;;;;;;;;;22.68;28.31;101499.72;4448005;32;19945;-74
2022/02/07 11:58:54;;;;;;;;;;;;;;;23.65;26.42;101505.34;4447074;32;20411;-74
2022/02/07 12:01:40;;;;;;;;;;;;;;;24.11;26.35;101502.31;4429872;32;20008;-74
2022/02/07 12:04:09;;;;;;;;;;;;;;;23.66;26.76;101486.81;4445479;32;19974;-74
2022/02/07 12:06:35;;;;;;;;;;;;;;;23.54;26.74;101497.41;4447335;32;20446;-74
2022/02/07 12:09:00;;;;;;;;;;;;;;;23.13;27.16;101509.56;4447543;32;19961;-74
2022/02/07 12:11:43;;;;;;;;;;;;;;;23.48;26.86;101493.72;4444476;32;19985;-73
2022/02/07 12:14:28;;;;;;;;;;;;;;;22.98;27.34;101483.06;4445433;32;19948;-73
2022/02/07 12:16:54;;;;;;;;;;;;;;;22.19;28.72;101493.31;4446754;32;20020;-73
2022/02/07 12:19:20;;;;;;;;;;;;;;;21.40;29.78;101492.62;4446431;32;21554;-73
2022/02/07 12:21:53;;;;;;;;;;;;;;;20.71;31.28;101496.03;4446727;32;20330;-73
2022/02/07 12:24:19;;;;;;;;;;;;;;;19.76;33.00;101495.25;4446253;32;19960;-73
2022/02/07 12:26:46;;;;;;;;;;;;;;;19.35;33.70;101473.25;4445251;32;20063;-73
2022/02/07 12:29:24;;;;;;;;;;;;;;;18.69;35.17;101460.09;4447592;32;20150;-73
2022/02/07 12:31:52;;;;;;;;;;;;;;;18.55;35.94;101457.06;4430194;32;20019;-73
2022/02/07 12:34:24;;;;;;;;;;;;;;;18.65;35.86;101445.19;4446096;32;20112;-73
2022/02/07 12:36:52;;;;;;;;;;;;;;;18.54;36.21;101444.09;4431053;32;20771;-72
2022/02/07 12:39:17;;;;;;;;;;;;;;;18.05;37.39;101443.44;4436780;32;21237;-71
2022/02/07 12:41:44;;;;;;;;;;;;;;;17.76;38.43;101438.97;4443969;32;19993;-72
2022/02/07 12:44:12;;;;;;;;;;;;;;;17.93;38.73;101428.06;4447756;32;20001;-72
2022/02/07 12:46:42;;;;;;;;;;;;;;;17.74;39.21;101432.94;4443742;32;20301;-73
2022/02/07 12:49:12;;;;;;;;;;;;;;;17.84;39.24;101420.31;4446547;32;19995;-73
2022/02/07 12:51:43;;;;;;;;;;;;;;;17.81;39.66;101429.81;4445366;32;19952;-73
2022/02/07 12:54:10;;;;;;;;;;;;;;;18.09;39.55;101404.97;4445656;32;19987;-73
2022/02/07 12:56:37;;;;;;;;;;;;;;;17.99;39.82;101403.41;4447266;32;20023;-73
2022/02/07 12:59:03;;;;;;;;;;;;;;;18.30;39.50;101403.22;4438615;32;20013;-74
2022/02/07 13:01:35;;;;;;;;;;;;;;;18.18;39.79;101398.47;4421073;32;19957;-73
2022/02/07 13:04:03;;;;;;;;;;;;;;;18.31;39.80;101382.03;4429663;32;20007;-74
2022/02/07 13:06:30;;;;;;;;;;;;;;;18.59;39.50;101392.94;4423730;32;19991;-75
2022/02/07 13:08:57;;;;;;;;;;;;;;;18.98;38.75;101391.88;4433593;32;19999;-73
2022/02/07 13:11:25;;;;;;;;;;;;;;;19.21;38.34;101385.44;4433643;32;19980;-73
2022/02/07 13:13:51;;;;;;;;;;;;;;;19.05;39.03;101374.41;4432853;32;20181;-73
2022/02/07 13:16:22;;;;;;;;;;;;;;;19.27;38.79;101374.97;4434058;32;19989;-74
2022/02/07 13:18:48;;;;;;;;;;;;;;;20.86;36.99;101365.22;4433676;32;20009;-74
2022/02/07 13:21:17;;;;;;;;;;;;;;;21.55;34.78;101348.13;4432895;32;19969;-74
2022/02/07 13:23:44;;;;;;;;;;;;;;;22.04;34.28;101352.94;4431763;32;20287;-73
2022/02/07 13:26:11;;;;;;;;;;;;;;;22.52;33.21;101333.13;4432804;32;20315;-74
2022/02/07 13:28:39;;;;;;;;;;;;;;;23.12;32.44;101344.31;4424125;32;20314;-74
2022/02/07 13:31:06;;;;;;;;;;;;;;;22.99;32.42;101344.75;4433636;32;19981;-74
2022/02/07 13:33:44;;;;;;;;;;;;;;;22.62;33.18;101335.31;4433603;32;20583;-74
2022/02/07 13:36:10;;;;;;;;;;;;;;;22.53;33.41;101337.56;4432384;32;20729;-75
2022/02/07 13:38:37;;;;;;;;;;;;;;;21.21;35.45;101326.03;4436549;32;20501;-75
2022/02/07 13:41:02;;;;;;;;;;;;;;;21.26;35.49;101315.94;4435126;32;20036;-74
2022/02/07 13:43:30;;;;;;;;;;;;;;;21.83;34.84;101301.84;4433705;32;20349;-74
2022/02/07 13:45:57;;;;;;;;;;;;;;;21.01;35.95;101323.09;4432916;32;19966;-73
2022/02/07 13:48:25;;;;;;;;;;;;;;;19.97;38.27;101329.75;4433415;32;19971;-74
2022/02/07 13:50:53;;;;;;;;;;;;;;;20.29;37.98;101315.34;4433782;32;19986;-74
2022/02/07 13:53:20;;;;;;;;;;;;;;;20.14;38.32;101310.88;4435261;32;20291;-74
2022/02/07 13:55:47;;;;;;;;;;;;;;;20.12;38.38;101302.81;4436209;32;20016;-76
2022/02/07 13:58:15;;;;;;;;;;;;;;;21.13;36.39;101304.00;4436288;32;21101;-74
2022/02/07 14:05:55;;;;;;;;;;;;;;;22.80;33.88;101311.97;3944349;32;15721530;-74
2022/02/07 14:08:30;;;;;;;;;;;;;;;22.80;33.88;101311.97;4422210;32;19992;-74
2022/02/07 14:10:56;;;;;;;;;;;;;;;22.59;33.97;101292.50;4425501;32;20260;-74
2022/02/07 14:13:22;;;;;;;;;;;;;;;22.92;33.31;101299.28;4423424;32;20020;-74
2022/02/07 14:15:47;;;;;;;;;;;;;;;22.40;33.70;101308.47;4423071;32;20057;-73
2022/02/07 14:18:16;;;;;;;;;;;;;;;22.92;33.17;101301.37;4412691;32;20432;-73
2022/02/07 14:20:42;;;;;;;;;;;;;;;23.53;32.27;101288.97;4425644;32;20364;-72
2022/02/07 14:23:11;;;;;;;;;;;;;;;23.62;31.96;101296.59;4427714;32;19973;-73
2022/02/07 14:25:37;;;;;;;;;;;;;;;23.99;31.40;101308.78;4424884;32;19953;-74
2022/02/07 14:28:03;;;;;;;;;;;;;;;24.77;30.41;101292.44;4428014;32;19965;-73
2022/02/07 14:30:30;;;;;;;;;;;;;;;25.06;29.99;101295.53;4409633;32;19961;-74
2022/02/07 14:33:00;;;;;;;;;;;;;;;25.04;29.95;101289.50;4423489;32;20389;-73
2022/02/07 14:35:27;;;;;;;;;;;;;;;24.98;29.83;101282.97;4427395;32;20625;-73
2022/02/07 14:37:53;;;;;;;;;;;;;;;25.18;29.52;101279.81;4426527;32;19997;-72
2022/02/07 14:40:19;;;;;;;;;;;;;;;25.96;28.60;101277.44;4425532;32;19996;-73
2022/02/07 14:42:45;;;;;;;;;;;;;;;25.98;28.51;101277.69;4423198;32;20453;-74
2022/02/07 14:45:16;;;;;;;;;;;;;;;26.85;27.57;101260.28;4425189;32;19971;-74
2022/02/07 14:47:51;;;;;;;;;;;;;;;26.91;27.52;101252.34;4423868;32;19997;-73
2022/02/07 14:50:19;;;;;;;;;;;;;;;27.18;26.82;101262.78;4425153;32;19968;-73
2022/02/07 14:52:47;;;;;;;;;;;;;;;27.86;26.40;101261.50;4419513;32;20000;-73
2022/02/07 14:55:13;;;;;;;;;;;;;;;28.67;25.28;101266.56;4413098;32;20021;-73
2022/02/07 14:57:38;;;;;;;;;;;;;;;28.70;25.37;101259.66;4425959;32;20044;-73
2022/02/07 15:00:05;;;;;;;;;;;;;;;29.06;24.99;101263.78;4424477;32;19961;-72
2022/02/07 15:02:32;;;;;;;;;;;;;;;27.67;26.48;101228.88;4423430;32;20605;-73
2022/02/07 15:05:00;;;;;;;;;;;;;;;27.99;26.58;101236.31;4424464;32;19965;-73
2022/02/07 15:07:27;;;;;;;;;;;;;;;28.24;26.14;101236.97;4413797;32;20182;-73
2022/02/07 15:09:53;;;;;;;;;;;;;;;27.35;27.15;101256.84;4426001;32;20056;-73
2022/02/07 15:12:19;;;;;;;;;;;;;;;26.47;28.30;101241.94;4421977;32;20004;-72
2022/02/07 15:14:49;;;;;;;;;;;;;;;28.06;26.53;101255.94;4406894;32;19965;-75
2022/02/07 15:17:16;;;;;;;;;;;;;;;27.94;26.45;101257.44;4413452;32;20010;-74
2022/02/07 15:19:42;;;;;;;;;;;;;;;27.87;26.43;101257.28;4400720;32;20398;-74
2022/02/07 15:22:08;;;;;;;;;;;;;;;26.95;27.61;101252.81;4344319;32;20021;-74
2022/02/07 15:24:36;;;;;;;;;;;;;;;26.34;28.41;101256.22;4368440;32;19997;-74
2022/02/07 15:27:03;;;;;;;;;;;;;;;26.03;28.92;101256.69;4366298;32;20001;-74